Time,TemperatureF,DewpointF,PressureIn,WindDirection,WindDirectionDegrees,WindSpeedMPH,WindSpeedGustMPH,Humidity,HourlyPrecipIn,Conditions,Clouds,dailyrainin,SoftwareType,DateUTC
2013-08-31 00:00:00,68.4,65.4,29.96,NNE,30,0.0,0.0,90,0.00,,,0.00,Wunderground v.1.15,2013-08-31 04:00:00,
2013-08-31 00:10:00,68.3,65.3,29.95,NNE,29,0.0,0.0,90,0.00,,,0.00,Wunderground v.1.15,2013-08-31 04:10:00,
2013-08-31 00:19:00,68.2,65.2,29.95,NNE,29,0.0,0.0,90,0.00,,,0.00,Wunderground v.1.15,2013-08-31 04:19:00,
2013-08-31 00:30:00,68.0,65.0,29.96,NNE,30,0.0,0.0,90,0.00,,,0.00,Wunderground v.1.15,2013-08-31 04:30:00,
2013-08-31 00:39:00,67.8,64.8,29.96,NNE,30,0.0,0.0,90,0.00,,,0.00,Wunderground v.1.15,2013-08-31 04:39:00,
2013-08-31 00:49:00,67.6,64.9,29.96,NNE,30,0.0,0.0,91,0.00,,,0.00,Wunderground v.1.15,2013-08-31 04:49:00,
2013-08-31 01:00:00,67.4,64.7,29.96,NNE,30,0.0,0.0,91,0.00,,,0.00,Wunderground v.1.15,2013-08-31 05:00:00,
2013-08-31 01:09:00,67.3,64.6,29.95,NNE,30,0.0,0.0,91,0.00,,,0.00,Wunderground v.1.15,2013-08-31 05:09:00,
2013-08-31 01:20:00,67.1,64.4,29.95,NNE,30,0.0,0.0,91,0.00,,,0.00,Wunderground v.1.15,2013-08-31 05:20:00,
2013-08-31 01:30:00,67.0,64.3,29.95,NNE,29,0.0,0.0,91,0.00,,,0.00,Wunderground v.1.15,2013-08-31 05:30:00,
2013-08-31 01:39:00,66.8,64.1,29.95,NNE,30,0.0,0.0,91,0.00,,,0.00,Wunderground v.1.15,2013-08-31 05:39:00,
2013-08-31 01:50:00,66.8,64.1,29.95,NNE,29,0.0,0.0,91,0.00,,,0.00,Wunderground v.1.15,2013-08-31 05:50:00,
2013-08-31 02:00:00,66.8,64.1,29.95,NNE,29,0.0,0.0,91,0.00,,,0.00,Wunderground v.1.15,2013-08-31 06:00:00,
2013-08-31 02:09:00,66.8,64.4,29.95,NNE,29,0.0,0.0,92,0.00,,,0.00,Wunderground v.1.15,2013-08-31 06:09:00,
2013-08-31 02:20:00,66.6,64.2,29.96,NNE,30,0.0,0.0,92,0.00,,,0.00,Wunderground v.1.15,2013-08-31 06:20:00,
2013-08-31 02:30:00,66.4,64.0,29.95,NNE,30,0.0,0.0,92,0.00,,,0.00,Wunderground v.1.15,2013-08-31 06:30:00,
2013-08-31 02:39:00,66.3,63.9,29.95,NNE,30,0.0,0.0,92,0.00,,,0.00,Wunderground v.1.15,2013-08-31 06:39:00,
2013-08-31 02:50:00,66.2,63.8,29.95,NNE,30,0.0,0.0,92,0.00,,,0.00,Wunderground v.1.15,2013-08-31 06:50:00,
2013-08-31 03:00:00,66.3,63.9,29.95,NNE,30,0.0,0.0,92,0.00,,,0.00,Wunderground v.1.15,2013-08-31 07:00:00,
2013-08-31 03:09:00,66.0,63.6,29.94,NNE,29,0.0,0.0,92,0.00,,,0.00,Wunderground v.1.15,2013-08-31 07:09:00,
2013-08-31 03:20:00,65.8,63.4,29.94,NNE,29,0.0,0.0,92,0.00,,,0.00,Wunderground v.1.15,2013-08-31 07:20:00,
2013-08-31 03:30:00,65.8,63.7,29.94,NNE,29,0.0,0.0,93,0.00,,,0.00,Wunderground v.1.15,2013-08-31 07:30:00,
2013-08-31 03:39:00,65.8,63.7,29.94,NNE,29,0.0,0.0,93,0.00,,,0.00,Wunderground v.1.15,2013-08-31 07:39:00,
2013-08-31 03:50:00,65.8,63.7,29.94,NNE,30,0.0,0.0,93,0.00,,,0.00,Wunderground v.1.15,2013-08-31 07:50:00,
2013-08-31 04:00:00,65.8,63.7,29.94,NNE,30,0.0,0.0,93,0.00,,,0.00,Wunderground v.1.15,2013-08-31 08:00:00,
2013-08-31 04:09:00,65.6,63.2,29.95,NNE,30,0.0,0.0,92,0.00,,,0.00,Wunderground v.1.15,2013-08-31 08:09:00,
2013-08-31 04:20:00,65.5,63.4,29.95,NNE,29,0.0,0.0,93,0.00,,,0.00,Wunderground v.1.15,2013-08-31 08:20:00,
2013-08-31 04:30:00,65.4,63.3,29.95,NNE,29,0.0,0.0,93,0.00,,,0.00,Wunderground v.1.15,2013-08-31 08:30:00,
2013-08-31 04:39:00,65.4,63.3,29.95,NNE,29,0.0,0.0,93,0.00,,,0.00,Wunderground v.1.15,2013-08-31 08:39:00,
2013-08-31 04:50:00,65.1,63.0,29.95,NNE,29,0.0,0.0,93,0.00,,,0.00,Wunderground v.1.15,2013-08-31 08:50:00,
2013-08-31 04:59:00,65.0,62.9,29.95,NNE,30,0.0,0.0,93,0.00,,,0.00,Wunderground v.1.15,2013-08-31 08:59:00,
2013-08-31 05:09:00,65.1,63.0,29.94,NNE,30,0.0,0.0,93,0.00,,,0.00,Wunderground v.1.15,2013-08-31 09:09:00,
2013-08-31 05:20:00,65.1,63.0,29.94,NNE,30,0.0,0.0,93,0.00,,,0.00,Wunderground v.1.15,2013-08-31 09:20:00,
2013-08-31 05:30:00,65.0,62.9,29.94,NNE,30,0.0,0.0,93,0.00,,,0.00,Wunderground v.1.15,2013-08-31 09:30:00,
2013-08-31 05:40:00,64.8,62.7,29.94,NNE,30,0.0,0.0,93,0.00,,,0.00,Wunderground v.1.15,2013-08-31 09:40:00,
2013-08-31 05:50:00,64.8,62.7,29.94,NNE,30,0.0,0.0,93,0.00,,,0.00,Wunderground v.1.15,2013-08-31 09:50:00,
2013-08-31 05:59:00,64.7,62.6,29.94,NNE,30,0.0,0.0,93,0.00,,,0.00,Wunderground v.1.15,2013-08-31 09:59:00,
2013-08-31 06:09:00,64.6,62.5,29.94,NNE,30,0.0,0.0,93,0.00,,,0.00,Wunderground v.1.15,2013-08-31 10:09:00,
2013-08-31 06:20:00,64.7,62.6,29.94,NNE,29,0.0,0.0,93,0.00,,,0.00,Wunderground v.1.15,2013-08-31 10:20:00,
2013-08-31 06:29:00,64.8,62.7,29.95,NNE,29,0.0,0.0,93,0.00,,,0.00,Wunderground v.1.15,2013-08-31 10:29:00,
2013-08-31 06:40:00,64.8,63.0,29.95,NNE,29,0.0,0.0,94,0.00,,,0.00,Wunderground v.1.15,2013-08-31 10:40:00,
2013-08-31 06:50:00,64.8,62.7,29.95,NNE,30,0.0,0.0,93,0.00,,,0.00,Wunderground v.1.15,2013-08-31 10:50:00,
2013-08-31 07:00:00,64.8,63.0,29.95,NNE,30,0.0,0.0,94,0.00,,,0.00,Wunderground v.1.15,2013-08-31 11:00:00,
2013-08-31 07:10:00,64.9,63.1,29.95,NNE,29,0.0,0.0,94,0.00,,,0.00,Wunderground v.1.15,2013-08-31 11:10:00,
2013-08-31 07:19:00,65.2,63.4,29.95,NNE,30,0.0,0.0,94,0.00,,,0.00,Wunderground v.1.15,2013-08-31 11:19:00,
2013-08-31 07:30:00,65.2,63.4,29.95,NNE,29,0.0,0.0,94,0.00,,,0.00,Wunderground v.1.15,2013-08-31 11:30:00,
2013-08-31 07:40:00,65.6,63.8,29.95,NNE,29,0.0,0.0,94,0.00,,,0.00,Wunderground v.1.15,2013-08-31 11:40:00,
2013-08-31 07:49:00,66.7,65.2,29.95,NNE,29,0.0,0.0,95,0.00,,,0.00,Wunderground v.1.15,2013-08-31 11:49:00,
2013-08-31 08:00:00,67.5,66.0,29.95,NNE,29,0.0,0.0,95,0.00,,,0.00,Wunderground v.1.15,2013-08-31 12:00:00,
2013-08-31 08:10:00,68.8,67.3,29.96,NNE,22,0.0,0.0,95,0.00,,,0.00,Wunderground v.1.15,2013-08-31 12:10:00,
2013-08-31 08:19:00,69.4,67.9,29.95,NNE,23,0.0,0.0,95,0.00,,,0.00,Wunderground v.1.15,2013-08-31 12:19:00,
2013-08-31 08:30:00,69.7,68.2,29.96,WNW,299,0.0,0.0,95,0.00,,,0.00,Wunderground v.1.15,2013-08-31 12:30:00,
2013-08-31 08:40:00,70.0,68.5,29.95,WNW,299,0.0,0.0,95,0.00,,,0.00,Wunderground v.1.15,2013-08-31 12:40:00,
2013-08-31 08:49:00,70.3,68.8,29.95,WNW,298,0.0,0.0,95,0.00,,,0.00,Wunderground v.1.15,2013-08-31 12:49:00,
2013-08-31 09:00:00,70.7,69.2,29.96,WNW,298,0.0,0.0,95,0.00,,,0.00,Wunderground v.1.15,2013-08-31 13:00:00,
2013-08-31 09:09:00,71.1,69.6,29.95,WNW,298,0.0,0.0,95,0.00,,,0.00,Wunderground v.1.15,2013-08-31 13:09:00,
2013-08-31 09:20:00,71.6,70.1,29.95,WNW,298,0.0,0.0,95,0.00,,,0.00,Wunderground v.1.15,2013-08-31 13:20:00,
2013-08-31 09:29:00,72.4,70.6,29.95,WNW,298,0.0,0.0,94,0.00,,,0.00,Wunderground v.1.15,2013-08-31 13:29:00,
2013-08-31 09:40:00,73.1,71.3,29.96,WNW,297,1.0,1.0,94,0.00,,,0.00,Wunderground v.1.15,2013-08-31 13:40:00,
2013-08-31 09:50:00,73.8,71.6,29.96,WNW,295,1.0,1.0,93,0.00,,,0.00,Wunderground v.1.15,2013-08-31 13:50:00,
2013-08-31 09:59:00,74.6,72.1,29.96,WNW,294,0.0,0.0,92,0.00,,,0.00,Wunderground v.1.15,2013-08-31 13:59:00,
2013-08-31 10:10:00,75.4,72.6,29.96,NW,311,0.0,0.0,91,0.00,,,0.00,Wunderground v.1.15,2013-08-31 14:10:00,
2013-08-31 10:19:00,76.5,73.3,29.96,WNW,286,0.0,1.0,90,0.00,,,0.00,Wunderground v.1.15,2013-08-31 14:19:00,
2013-08-31 10:29:00,77.5,74.0,29.96,WNW,285,1.0,1.0,89,0.00,,,0.00,Wunderground v.1.15,2013-08-31 14:29:00,
2013-08-31 10:40:00,78.3,74.5,29.96,SW,233,1.0,2.0,88,0.00,,,0.00,Wunderground v.1.15,2013-08-31 14:40:00,
2013-08-31 10:49:00,78.7,74.2,29.97,SW,226,1.0,1.0,86,0.00,,,0.00,Wunderground v.1.15,2013-08-31 14:49:00,
2013-08-31 10:59:00,79.0,74.1,29.97,WSW,242,1.0,2.0,85,0.00,,,0.00,Wunderground v.1.15,2013-08-31 14:59:00,
2013-08-31 11:10:00,80.1,74.8,29.97,South,169,1.0,2.0,84,0.00,,,0.00,Wunderground v.1.15,2013-08-31 15:10:00,
2013-08-31 11:19:00,81.1,75.8,29.97,South,184,1.0,1.0,84,0.00,,,0.00,Wunderground v.1.15,2013-08-31 15:19:00,
2013-08-31 11:30:00,81.0,74.6,29.96,WSW,248,1.0,1.0,81,0.00,,,0.00,Wunderground v.1.15,2013-08-31 15:30:00,
2013-08-31 11:40:00,81.1,74.7,29.96,WSW,248,1.0,1.0,81,0.00,,,0.00,Wunderground v.1.15,2013-08-31 15:40:00,
2013-08-31 11:49:00,81.1,75.1,29.96,WNW,284,1.0,1.0,82,0.00,,,0.00,Wunderground v.1.15,2013-08-31 15:49:00,
2013-08-31 12:00:00,81.7,75.7,29.95,West,267,1.0,1.0,82,0.00,,,0.00,Wunderground v.1.15,2013-08-31 16:00:00,
2013-08-31 12:10:00,82.5,75.3,29.95,SSW,194,1.0,2.0,79,0.00,,,0.00,Wunderground v.1.15,2013-08-31 16:10:00,
2013-08-31 12:19:00,82.8,75.2,29.95,West,264,1.0,2.0,78,0.00,,,0.00,Wunderground v.1.15,2013-08-31 16:19:00,
2013-08-31 12:30:00,82.7,74.4,29.94,North,11,1.0,1.0,76,0.00,,,0.00,Wunderground v.1.15,2013-08-31 16:30:00,
2013-08-31 12:40:00,83.0,75.0,29.94,SE,136,1.0,1.0,77,0.00,,,0.00,Wunderground v.1.15,2013-08-31 16:40:00,
2013-08-31 12:49:00,82.7,74.8,29.94,WSW,253,1.0,1.0,77,0.00,,,0.00,Wunderground v.1.15,2013-08-31 16:49:00,
2013-08-31 13:00:00,83.3,74.9,29.93,ENE,66,1.0,2.0,76,0.00,,,0.00,Wunderground v.1.15,2013-08-31 17:00:00,
2013-08-31 13:09:00,83.4,75.0,29.93,SSW,198,1.0,2.0,76,0.00,,,0.00,Wunderground v.1.15,2013-08-31 17:09:00,
2013-08-31 13:20:00,83.5,74.3,29.93,SW,236,1.0,1.0,74,0.00,,,0.00,Wunderground v.1.15,2013-08-31 17:20:00,
2013-08-31 13:29:00,83.4,74.2,29.93,SW,236,1.0,1.0,74,0.00,,,0.00,Wunderground v.1.15,2013-08-31 17:29:00,
2013-08-31 13:40:00,83.5,74.7,29.93,WSW,243,0.0,0.0,75,0.00,,,0.00,Wunderground v.1.15,2013-08-31 17:40:00,
2013-08-31 13:50:00,84.0,74.4,29.92,West,263,1.0,1.0,73,0.00,,,0.00,Wunderground v.1.15,2013-08-31 17:50:00,
2013-08-31 14:00:00,84.8,76.0,29.92,WSW,250,1.0,1.0,75,0.00,,,0.00,Wunderground v.1.15,2013-08-31 18:00:00,
2013-08-31 14:10:00,84.5,74.9,29.92,West,279,1.0,2.0,73,0.00,,,0.00,Wunderground v.1.15,2013-08-31 18:10:00,
2013-08-31 14:19:00,84.8,75.2,29.91,West,279,1.0,1.0,73,0.00,,,0.00,Wunderground v.1.15,2013-08-31 18:19:00,
2013-08-31 14:29:00,85.0,75.8,29.91,SSE,155,1.0,1.0,74,0.00,,,0.00,Wunderground v.1.15,2013-08-31 18:29:00,
2013-08-31 14:40:00,84.8,74.8,29.91,SE,126,1.0,1.0,72,0.00,,,0.00,Wunderground v.1.15,2013-08-31 18:40:00,
2013-08-31 14:49:00,85.7,76.9,29.90,West,270,1.0,4.0,75,0.00,,,0.00,Wunderground v.1.15,2013-08-31 18:49:00,
2013-08-31 15:00:00,85.3,75.7,29.90,West,274,1.0,1.0,73,0.00,,,0.00,Wunderground v.1.15,2013-08-31 19:00:00,
2013-08-31 15:10:00,84.8,74.8,29.89,SE,126,1.0,2.0,72,0.00,,,0.00,Wunderground v.1.15,2013-08-31 19:10:00,
2013-08-31 15:19:00,85.0,74.5,29.89,SSW,195,1.0,2.0,71,0.00,,,0.00,Wunderground v.1.15,2013-08-31 19:19:00,
2013-08-31 15:30:00,84.8,74.3,29.89,SSW,195,0.0,0.0,71,0.00,,,0.00,Wunderground v.1.15,2013-08-31 19:30:00,
2013-08-31 15:39:00,84.4,75.2,29.88,SSW,195,0.0,0.0,74,0.00,,,0.00,Wunderground v.1.15,2013-08-31 19:39:00,
2013-08-31 15:50:00,84.5,75.3,29.88,SW,217,1.0,1.0,74,0.00,,,0.00,Wunderground v.1.15,2013-08-31 19:50:00,
2013-08-31 15:59:00,83.9,74.3,29.88,SW,217,0.0,0.0,73,0.00,,,0.00,Wunderground v.1.15,2013-08-31 19:59:00,
2013-08-31 16:10:00,83.4,75.0,29.87,SW,217,0.0,1.0,76,0.00,,,0.00,Wunderground v.1.15,2013-08-31 20:10:00,
2013-08-31 16:20:00,83.3,74.9,29.87,SW,217,0.0,0.0,76,0.00,,,0.00,Wunderground v.1.15,2013-08-31 20:20:00,
2013-08-31 16:29:00,83.0,75.0,29.87,SW,217,0.0,0.0,77,0.00,,,0.00,Wunderground v.1.15,2013-08-31 20:29:00,
2013-08-31 16:40:00,82.9,73.8,29.87,ESE,121,0.0,2.0,74,0.00,,,0.00,Wunderground v.1.15,2013-08-31 20:40:00,
2013-08-31 16:49:00,83.3,75.3,29.87,WSW,246,1.0,1.0,77,0.00,,,0.00,Wunderground v.1.15,2013-08-31 20:49:00,
2013-08-31 17:00:00,82.9,75.3,29.86,WSW,246,0.0,0.0,78,0.00,,,0.00,Wunderground v.1.15,2013-08-31 21:00:00,
2013-08-31 17:09:00,82.4,74.5,29.87,WSW,242,0.0,0.0,77,0.00,,,0.00,Wunderground v.1.15,2013-08-31 21:09:00,
2013-08-31 17:20:00,82.4,75.2,29.88,WSW,239,0.0,1.0,79,0.00,,,0.00,Wunderground v.1.15,2013-08-31 21:20:00,
2013-08-31 17:30:00,82.0,74.8,29.87,WSW,239,0.0,0.0,79,0.00,,,0.00,Wunderground v.1.15,2013-08-31 21:30:00,
2013-08-31 17:40:00,82.0,74.8,29.87,WSW,239,0.0,0.0,79,0.00,,,0.00,Wunderground v.1.15,2013-08-31 21:40:00,
2013-08-31 17:50:00,81.8,75.0,29.87,WSW,239,0.0,0.0,80,0.00,,,0.00,Wunderground v.1.15,2013-08-31 21:50:00,
2013-08-31 18:00:00,81.4,75.0,29.88,WSW,238,0.0,0.0,81,0.00,,,0.00,Wunderground v.1.15,2013-08-31 22:00:00,
2013-08-31 18:10:00,81.2,74.8,29.88,WSW,239,0.0,0.0,81,0.00,,,0.00,Wunderground v.1.15,2013-08-31 22:10:00,
2013-08-31 18:19:00,80.8,75.2,29.88,WSW,238,0.0,0.0,83,0.00,,,0.00,Wunderground v.1.15,2013-08-31 22:19:00,
2013-08-31 18:30:00,80.3,74.7,29.88,WSW,239,0.0,0.0,83,0.00,,,0.00,Wunderground v.1.15,2013-08-31 22:30:00,
2013-08-31 18:40:00,79.8,74.9,29.87,WSW,239,0.0,0.0,85,0.00,,,0.00,Wunderground v.1.15,2013-08-31 22:40:00,
2013-08-31 18:49:00,79.5,74.6,29.87,WSW,239,0.0,0.0,85,0.00,,,0.00,Wunderground v.1.15,2013-08-31 22:49:00,
2013-08-31 19:00:00,79.4,74.5,29.87,WSW,239,0.0,0.0,85,0.00,,,0.00,Wunderground v.1.15,2013-08-31 23:00:00,
2013-08-31 19:09:00,79.1,74.5,29.88,WSW,238,0.0,0.0,86,0.00,,,0.00,Wunderground v.1.15,2013-08-31 23:09:00,
2013-08-31 19:20:00,78.8,74.3,29.87,WSW,238,0.0,0.0,86,0.00,,,0.00,Wunderground v.1.15,2013-08-31 23:20:00,
2013-08-31 19:30:00,78.6,74.4,29.86,WSW,239,0.0,0.0,87,0.00,,,0.00,Wunderground v.1.15,2013-08-31 23:30:00,
2013-08-31 19:40:00,78.3,74.5,29.86,WSW,238,0.0,0.0,88,0.00,,,0.00,Wunderground v.1.15,2013-08-31 23:40:00,
2013-08-31 19:50:00,78.0,74.2,29.86,WSW,238,0.0,0.0,88,0.00,,,0.00,Wunderground v.1.15,2013-08-31 23:50:00,
2013-08-31 20:00:00,77.6,73.8,29.87,WSW,238,0.0,0.0,88,0.00,,,0.00,Wunderground v.1.15,2013-09-01 00:00:00,
2013-08-31 20:09:00,77.3,73.5,29.87,WSW,238,0.0,0.0,88,0.00,,,0.00,Wunderground v.1.15,2013-09-01 00:09:00,
2013-08-31 20:19:00,76.9,73.1,29.88,WSW,238,0.0,0.0,88,0.00,,,0.00,Wunderground v.1.15,2013-09-01 00:19:00,
2013-08-31 20:30:00,76.7,73.2,29.88,WSW,239,0.0,0.0,89,0.00,,,0.00,Wunderground v.1.15,2013-09-01 00:30:00,
2013-08-31 20:39:00,76.6,73.1,29.89,WSW,239,0.0,0.0,89,0.00,,,0.00,Wunderground v.1.15,2013-09-01 00:39:00,
2013-08-31 20:50:00,76.4,73.2,29.89,WSW,239,0.0,0.0,90,0.00,,,0.00,Wunderground v.1.15,2013-09-01 00:50:00,
2013-08-31 21:00:00,76.3,73.1,29.90,WSW,238,0.0,0.0,90,0.00,,,0.00,Wunderground v.1.15,2013-09-01 01:00:00,
2013-08-31 21:09:00,76.1,72.6,29.90,WSW,239,0.0,0.0,89,0.00,,,0.00,Wunderground v.1.15,2013-09-01 01:09:00,
2013-08-31 21:20:00,76.1,73.0,29.90,WSW,238,0.0,0.0,90,0.00,,,0.00,Wunderground v.1.15,2013-09-01 01:20:00,
2013-08-31 21:30:00,76.0,72.9,29.90,WSW,238,0.0,0.0,90,0.00,,,0.00,Wunderground v.1.15,2013-09-01 01:30:00,
2013-08-31 21:39:00,75.8,72.7,29.90,WSW,239,0.0,0.0,90,0.00,,,0.00,Wunderground v.1.15,2013-09-01 01:39:00,
2013-08-31 21:50:00,75.6,72.8,29.91,WSW,239,0.0,0.0,91,0.00,,,0.00,Wunderground v.1.15,2013-09-01 01:50:00,
2013-08-31 21:59:00,75.4,72.6,29.91,WSW,238,0.0,0.0,91,0.00,,,0.00,Wunderground v.1.15,2013-09-01 01:59:00,
2013-08-31 22:09:00,75.2,72.4,29.91,WSW,238,0.0,0.0,91,0.00,,,0.00,Wunderground v.1.15,2013-09-01 02:09:00,
2013-08-31 22:20:00,75.1,72.3,29.91,WSW,239,0.0,0.0,91,0.00,,,0.00,Wunderground v.1.15,2013-09-01 02:20:00,
2013-08-31 22:29:00,74.9,72.1,29.91,WSW,238,0.0,0.0,91,0.00,,,0.00,Wunderground v.1.15,2013-09-01 02:29:00,
2013-08-31 22:39:00,74.7,71.9,29.90,WSW,239,0.0,0.0,91,0.00,,,0.00,Wunderground v.1.15,2013-09-01 02:39:00,
2013-08-31 22:50:00,74.3,71.5,29.90,WSW,239,0.0,0.0,91,0.00,,,0.00,Wunderground v.1.15,2013-09-01 02:50:00,
2013-08-31 22:59:00,74.1,71.3,29.91,WSW,238,0.0,0.0,91,0.00,,,0.00,Wunderground v.1.15,2013-09-01 02:59:00,
2013-08-31 23:10:00,73.9,71.4,29.90,WSW,238,0.0,0.0,92,0.00,,,0.00,Wunderground v.1.15,2013-09-01 03:10:00,
2013-08-31 23:20:00,73.8,71.3,29.90,WSW,239,0.0,0.0,92,0.00,,,0.00,Wunderground v.1.15,2013-09-01 03:20:00,
2013-08-31 23:29:00,73.6,71.1,29.90,WSW,239,0.0,0.0,92,0.00,,,0.00,Wunderground v.1.15,2013-09-01 03:29:00,
2013-08-31 23:40:00,73.5,71.0,29.89,WSW,239,0.0,0.0,92,0.00,,,0.00,Wunderground v.1.15,2013-09-01 03:40:00,
2013-08-31 23:50:00,73.3,70.8,29.89,WSW,239,0.0,0.0,92,0.00,,,0.00,Wunderground v.1.15,2013-09-01 03:50:00,
2013-08-31 23:59:00,73.1,70.6,29.89,WSW,239,0.0,0.0,92,0.00,,,0.00,Wunderground v.1.15,2013-09-01 03:59:00,